»·PEaware :: SWA162 KLAX-KLAS

SWA162 :: KLAX-KLAS

FLIGHT INFORMATION

Flight Status: Arrived
Operator:
Southwest Airlines
More flights by this operator :: More flights under this callsign
Pilot: Cody B. (17747)
Aircraft: BOEING 737-800
(B738)
More flights by this aircraft type
Origin: KLAX Los Angeles Intl
United States
Destination: KLAS McCarran Intl
United States
More flights between these airports :: More routes between these airports
Route: OSHNN8 MISEN KEPEC6
File this flight plan on PilotEdge
Remarks:
Altitude:
(Current/Filed)
29,000ft
Speed:
(Current/Filed)
475kts
Departed: 12-Apr-18 11:35 AM
Arrived: 12-Apr-18 12:31 PM
Distance/Time
Traveled:
205nm/0:56
Distance/Time
To Go:
Arrived

Flight Plot

Page will automatically refresh every two minutes.

Flight plan parsing failed; only flown route is shown


Map Options




Map Legend


Flown Route
Filed Route
Departure Airport
Arrival Airport
Navaid (VOR, NDB)
Fix

Horizontal Profiles

Position Reports

Time Latitude Longitude Heading Altitude Ground
Speed
12-Apr-18 10:39 33.947904 -118.400719 222 115ft 0kts
12-Apr-18 10:40 33.947904 -118.400719 222 115ft 0kts
12-Apr-18 10:41 33.947904 -118.400719 222 115ft 0kts
12-Apr-18 10:42 33.947904 -118.400719 222 115ft 0kts
12-Apr-18 10:43 33.947904 -118.400719 222 115ft 0kts
12-Apr-18 10:44 33.947904 -118.400719 222 115ft 0kts
12-Apr-18 10:45 33.947904 -118.400719 222 115ft 0kts
12-Apr-18 10:46 33.947904 -118.400719 222 115ft 0kts
12-Apr-18 10:47 33.947904 -118.400719 222 115ft 0kts
12-Apr-18 10:48 33.947904 -118.400719 222 115ft 0kts
12-Apr-18 10:49 33.947904 -118.400719 222 115ft 0kts
12-Apr-18 10:50 33.947904 -118.400719 222 115ft 0kts
12-Apr-18 10:51 33.947904 -118.400719 222 115ft 0kts
12-Apr-18 10:52 33.947904 -118.400719 222 115ft 0kts
12-Apr-18 10:53 33.947904 -118.400719 222 115ft 0kts
12-Apr-18 10:54 33.947904 -118.400719 222 115ft 0kts
12-Apr-18 10:55 33.947904 -118.400719 222 115ft 0kts
12-Apr-18 10:56 33.947904 -118.400719 222 115ft 0kts
12-Apr-18 10:57 33.947904 -118.400719 222 115ft 0kts
12-Apr-18 10:58 33.947904 -118.400719 222 115ft 0kts
12-Apr-18 10:59 33.947904 -118.400719 222 115ft 0kts
12-Apr-18 11:00 33.947904 -118.400719 222 115ft 0kts
12-Apr-18 11:01 33.947904 -118.400719 222 115ft 0kts
12-Apr-18 11:02 33.947904 -118.400719 222 115ft 0kts
12-Apr-18 11:03 33.947904 -118.400719 222 115ft 0kts
12-Apr-18 11:04 33.947904 -118.400719 222 115ft 0kts
12-Apr-18 11:05 33.947904 -118.400719 222 115ft 0kts
12-Apr-18 11:06 33.947904 -118.400719 222 115ft 0kts
12-Apr-18 11:07 33.947904 -118.400719 222 115ft 0kts
12-Apr-18 11:08 33.947904 -118.400719 222 115ft 0kts
12-Apr-18 11:09 33.947904 -118.400719 222 115ft 0kts
12-Apr-18 11:10 33.947904 -118.400719 222 115ft 0kts
12-Apr-18 11:11 33.947904 -118.400719 222 115ft 0kts
12-Apr-18 11:12 33.947904 -118.400719 222 115ft 0kts
12-Apr-18 11:13 33.947904 -118.400719 222 115ft 0kts
12-Apr-18 11:14 33.947904 -118.400719 222 115ft 0kts
12-Apr-18 11:15 33.947904 -118.400719 222 115ft 0kts
12-Apr-18 11:16 33.947904 -118.400719 222 115ft 0kts
12-Apr-18 11:17 33.947904 -118.400719 222 115ft 0kts
12-Apr-18 11:18 33.947904 -118.400719 222 115ft 0kts
12-Apr-18 11:19 33.947904 -118.400719 222 115ft 0kts
12-Apr-18 11:20 33.947904 -118.400719 222 115ft 0kts
12-Apr-18 11:21 33.947904 -118.400719 222 115ft 0kts
12-Apr-18 11:22 33.947904 -118.400719 222 115ft 0kts
12-Apr-18 11:23 33.948082 -118.400517 221 114ft 2kts
12-Apr-18 11:24 33.948101 -118.400052 340 113ft 2kts
12-Apr-18 11:25 33.947958 -118.400047 5 113ft 0kts
12-Apr-18 11:26 33.947958 -118.400047 5 113ft 0kts
12-Apr-18 11:27 33.947970 -118.400046 4 113ft 0kts
12-Apr-18 11:28 33.948574 -118.400485 311 113ft 2kts
12-Apr-18 11:29 33.948832 -118.400851 309 114ft 0kts
12-Apr-18 11:30 33.949148 -118.401316 309 115ft 3kts
12-Apr-18 11:31 33.949281 -118.401513 311 116ft 0kts
12-Apr-18 11:32 33.949281 -118.401513 311 116ft 0kts
12-Apr-18 11:33 33.949438 -118.401643 333 116ft 3kts
12-Apr-18 11:34 33.949530 -118.408316 263 122ft 95kts
12-Apr-18 11:35 33.942114 -118.462004 282 2366ft 189kts
12-Apr-18 11:36 33.940807 -118.538305 270 5045ft 246kts
12-Apr-18 11:37 33.931371 -118.619375 245 5936ft 261kts
12-Apr-18 11:38 33.857748 -118.641354 182 9406ft 312kts
12-Apr-18 11:39 33.775370 -118.589858 146 11825ft 371kts
12-Apr-18 11:40 33.692688 -118.509854 126 14647ft 402kts
12-Apr-18 11:41 33.653261 -118.381532 107 17030ft 424kts
12-Apr-18 11:42 33.639592 -118.245110 76 18055ft 418kts
12-Apr-18 11:43 33.696672 -118.135466 26 20265ft 386kts
12-Apr-18 11:44 33.783744 -118.056525 24 22323ft 402kts
12-Apr-18 11:45 33.874485 -117.974764 24 24193ft 417kts
12-Apr-18 11:46 33.968473 -117.889268 24 25898ft 432kts
12-Apr-18 11:47 34.064964 -117.800828 24 27449ft 446kts
12-Apr-18 11:48 34.151959 -117.689891 42 28698ft 485kts
12-Apr-18 11:49 34.237771 -117.560043 41 29128ft 514kts
12-Apr-18 11:50 34.328735 -117.423406 41 29115ft 531kts
12-Apr-18 11:51 34.420739 -117.285039 42 29112ft 532kts
12-Apr-18 11:52 34.513862 -117.145008 43 29114ft 537kts
12-Apr-18 11:53 34.607490 -117.006661 42 29077ft 536kts
12-Apr-18 11:54 34.702379 -116.868042 41 29037ft 535kts
12-Apr-18 11:55 34.796846 -116.729324 42 29045ft 530kts
12-Apr-18 11:56 34.896912 -116.599351 29 29047ft 518kts
12-Apr-18 11:57 35.003427 -116.497161 28 27437ft 477kts
12-Apr-18 11:58 35.105230 -116.398580 33 24626ft 470kts
12-Apr-18 11:59 35.192622 -116.289747 38 22211ft 412kts
12-Apr-18 12:00 35.273886 -116.188166 39 20695ft 428kts
12-Apr-18 12:01 35.353311 -116.087976 40 19153ft 395kts
12-Apr-18 12:02 35.429277 -115.992061 40 17814ft 386kts
12-Apr-18 12:03 35.503488 -115.897987 40 16413ft 377kts
12-Apr-18 12:04 35.575083 -115.807095 41 14951ft 365kts
12-Apr-18 12:05 35.643371 -115.720047 41 13627ft 342kts
12-Apr-18 12:06 35.705079 -115.641094 40 13064ft 314kts
12-Apr-18 12:07 35.771286 -115.575175 6 13053ft 297kts
12-Apr-18 12:08 35.852292 -115.568856 358 13037ft 291kts
12-Apr-18 12:09 35.933238 -115.564519 0 13036ft 292kts
12-Apr-18 12:10 35.992631 -115.498917 64 12311ft 310kts
12-Apr-18 12:11 36.022034 -115.406186 64 11317ft 277kts
12-Apr-18 12:12 36.029425 -115.313704 94 10290ft 281kts
12-Apr-18 12:13 36.021408 -115.219392 93 9231ft 270kts
12-Apr-18 12:14 36.014734 -115.130050 92 8425ft 244kts
12-Apr-18 12:15 36.009131 -115.047927 91 8027ft 239kts
12-Apr-18 12:16 36.004159 -114.966040 91 8025ft 240kts
12-Apr-18 12:17 35.999065 -114.883631 90 7997ft 241kts
12-Apr-18 12:18 35.993804 -114.800708 91 7998ft 243kts
12-Apr-18 12:19 35.988250 -114.717457 88 7993ft 241kts
12-Apr-18 12:20 36.026509 -114.668634 347 6842ft 205kts
12-Apr-18 12:21 36.056290 -114.718151 291 6397ft 184kts
12-Apr-18 12:22 36.071692 -114.778616 286 5373ft 183kts
12-Apr-18 12:23 36.073277 -114.841021 274 4931ft 181kts
12-Apr-18 12:24 36.073502 -114.903283 273 4899ft 178kts
12-Apr-18 12:25 36.073587 -114.959522 272 4669ft 159kts
12-Apr-18 12:26 36.073640 -115.008637 272 3898ft 136kts
12-Apr-18 12:27 36.073675 -115.054882 272 3186ft 132kts
12-Apr-18 12:28 36.073635 -115.100847 276 2485ft 131kts
12-Apr-18 12:29 36.073666 -115.142290 268 2092ft 48kts
12-Apr-18 12:30 36.074700 -115.146024 298 2103ft 0kts
12-Apr-18 12:31 36.074739 -115.146103 302 2103ft 1kts
12-Apr-18 12:32 36.076545 -115.146560 0 2104ft 12kts
12-Apr-18 12:33 36.077799 -115.147681 274 2104ft 2kts
12-Apr-18 12:34 36.078482 -115.148000 58 2103ft 5kts
12-Apr-18 12:35 36.079230 -115.147498 335 2100ft 5kts
12-Apr-18 12:36 36.079921 -115.147120 56 2096ft 0kts
12-Apr-18 12:37 36.079921 -115.147120 56 2096ft 0kts

Navigation Log

Ident Type
Flight plan parsing failed, navigation log unavailable